sensor_id;sensor_type;location;lat;lon;timestamp;P1;durP1;ratioP1;P2;durP2;ratioP2
20159;SDS011;50187;50.492;12.134;2023-04-12T00:00:25;1.97;;;1.87;;
20159;SDS011;50187;50.492;12.134;2023-04-12T00:03:10;2.50;;;2.30;;
20159;SDS011;50187;50.492;12.134;2023-04-12T00:05:56;2.10;;;2.00;;
20159;SDS011;50187;50.492;12.134;2023-04-12T00:08:41;2.10;;;1.90;;
20159;SDS011;50187;50.492;12.134;2023-04-12T00:11:26;2.10;;;1.90;;
20159;SDS011;50187;50.492;12.134;2023-04-12T00:14:12;2.37;;;2.07;;
20159;SDS011;50187;50.492;12.134;2023-04-12T00:16:57;2.30;;;2.10;;
20159;SDS011;50187;50.492;12.134;2023-04-12T00:19:42;2.17;;;1.97;;
20159;SDS011;50187;50.492;12.134;2023-04-12T00:22:28;2.23;;;2.03;;
20159;SDS011;50187;50.492;12.134;2023-04-12T00:25:13;1.80;;;1.70;;
20159;SDS011;50187;50.492;12.134;2023-04-12T00:27:59;1.90;;;1.80;;
20159;SDS011;50187;50.492;12.134;2023-04-12T00:30:44;1.87;;;1.50;;
20159;SDS011;50187;50.492;12.134;2023-04-12T00:33:30;1.90;;;1.77;;
20159;SDS011;50187;50.492;12.134;2023-04-12T00:36:17;2.00;;;1.90;;
20159;SDS011;50187;50.492;12.134;2023-04-12T00:39:02;1.67;;;1.57;;
20159;SDS011;50187;50.492;12.134;2023-04-12T00:41:47;2.57;;;2.10;;
20159;SDS011;50187;50.492;12.134;2023-04-12T00:44:33;1.80;;;1.70;;
20159;SDS011;50187;50.492;12.134;2023-04-12T00:47:18;1.87;;;1.77;;
20159;SDS011;50187;50.492;12.134;2023-04-12T00:50:04;1.77;;;1.67;;
20159;SDS011;50187;50.492;12.134;2023-04-12T00:52:50;2.00;;;1.80;;
20159;SDS011;50187;50.492;12.134;2023-04-12T00:55:44;2.23;;;1.83;;
20159;SDS011;50187;50.492;12.134;2023-04-12T00:58:30;1.67;;;1.57;;
20159;SDS011;50187;50.492;12.134;2023-04-12T01:01:16;1.90;;;1.80;;
20159;SDS011;50187;50.492;12.134;2023-04-12T01:04:03;1.60;;;1.50;;
20159;SDS011;50187;50.492;12.134;2023-04-12T01:10:23;1.80;;;1.70;;
20159;SDS011;50187;50.492;12.134;2023-04-12T01:13:31;2.23;;;1.60;;
20159;SDS011;50187;50.492;12.134;2023-04-12T01:16:43;2.53;;;1.83;;
20159;SDS011;50187;50.492;12.134;2023-04-12T01:29:21;1.87;;;1.77;;
20159;SDS011;50187;50.492;12.134;2023-04-12T01:32:11;1.67;;;1.57;;
20159;SDS011;50187;50.492;12.134;2023-04-12T01:34:56;1.80;;;1.70;;
20159;SDS011;50187;50.492;12.134;2023-04-12T01:37:43;1.73;;;1.47;;
20159;SDS011;50187;50.492;12.134;2023-04-12T01:40:30;1.73;;;1.63;;
20159;SDS011;50187;50.492;12.134;2023-04-12T01:43:16;1.80;;;1.70;;
20159;SDS011;50187;50.492;12.134;2023-04-12T01:46:01;1.60;;;1.50;;
20159;SDS011;50187;50.492;12.134;2023-04-12T01:48:50;1.83;;;1.73;;
20159;SDS011;50187;50.492;12.134;2023-04-12T01:54:33;1.63;;;1.53;;
20159;SDS011;50187;50.492;12.134;2023-04-12T01:57:22;1.47;;;1.37;;
20159;SDS011;50187;50.492;12.134;2023-04-12T02:00:09;1.50;;;1.40;;
20159;SDS011;50187;50.492;12.134;2023-04-12T02:02:58;1.50;;;1.40;;
20159;SDS011;50187;50.492;12.134;2023-04-12T02:05:44;1.60;;;1.50;;
20159;SDS011;50187;50.492;12.134;2023-04-12T02:08:30;1.77;;;1.67;;
20159;SDS011;50187;50.492;12.134;2023-04-12T02:11:15;1.53;;;1.43;;
20159;SDS011;50187;50.492;12.134;2023-04-12T02:14:01;1.50;;;1.40;;
20159;SDS011;50187;50.492;12.134;2023-04-12T02:16:46;1.90;;;1.80;;
20159;SDS011;50187;50.492;12.134;2023-04-12T02:19:32;1.40;;;1.30;;
20159;SDS011;50187;50.492;12.134;2023-04-12T02:22:17;1.60;;;1.50;;
20159;SDS011;50187;50.492;12.134;2023-04-12T02:25:03;1.63;;;1.53;;
20159;SDS011;50187;50.492;12.134;2023-04-12T02:27:50;1.63;;;1.53;;
20159;SDS011;50187;50.492;12.134;2023-04-12T02:30:35;1.83;;;1.73;;
20159;SDS011;50187;50.492;12.134;2023-04-12T02:33:22;1.40;;;1.30;;
20159;SDS011;50187;50.492;12.134;2023-04-12T02:36:14;1.63;;;1.53;;
20159;SDS011;50187;50.492;12.134;2023-04-12T02:39:00;1.87;;;1.70;;
20159;SDS011;50187;50.492;12.134;2023-04-12T02:41:45;1.63;;;1.53;;
20159;SDS011;50187;50.492;12.134;2023-04-12T02:44:32;1.63;;;1.53;;
20159;SDS011;50187;50.492;12.134;2023-04-12T02:47:30;1.33;;;1.30;;
20159;SDS011;50187;50.492;12.134;2023-04-12T02:50:18;1.53;;;1.43;;
20159;SDS011;50187;50.492;12.134;2023-04-12T02:53:10;1.43;;;1.33;;
20159;SDS011;50187;50.492;12.134;2023-04-12T02:55:57;1.60;;;1.50;;
20159;SDS011;50187;50.492;12.134;2023-04-12T02:58:46;1.50;;;1.40;;
20159;SDS011;50187;50.492;12.134;2023-04-12T03:01:39;1.30;;;1.30;;
20159;SDS011;50187;50.492;12.134;2023-04-12T03:04:38;1.57;;;1.47;;
20159;SDS011;50187;50.492;12.134;2023-04-12T03:07:28;1.50;;;1.40;;
20159;SDS011;50187;50.492;12.134;2023-04-12T03:10:15;1.60;;;1.43;;
20159;SDS011;50187;50.492;12.134;2023-04-12T03:13:20;1.37;;;1.27;;
20159;SDS011;50187;50.492;12.134;2023-04-12T03:16:20;1.50;;;1.37;;
20159;SDS011;50187;50.492;12.134;2023-04-12T03:19:12;1.53;;;1.43;;
20159;SDS011;50187;50.492;12.134;2023-04-12T03:21:59;1.27;;;1.17;;
20159;SDS011;50187;50.492;12.134;2023-04-12T03:24:46;1.30;;;1.30;;
20159;SDS011;50187;50.492;12.134;2023-04-12T03:27:36;1.60;;;1.50;;
20159;SDS011;50187;50.492;12.134;2023-04-12T03:30:21;1.50;;;1.40;;
20159;SDS011;50187;50.492;12.134;2023-04-12T03:33:10;1.70;;;1.60;;
20159;SDS011;50187;50.492;12.134;2023-04-12T03:35:56;1.57;;;1.47;;
20159;SDS011;50187;50.492;12.134;2023-04-12T03:38:42;1.60;;;1.50;;
20159;SDS011;50187;50.492;12.134;2023-04-12T03:41:28;1.40;;;1.30;;
20159;SDS011;50187;50.492;12.134;2023-04-12T03:44:15;1.17;;;1.17;;
20159;SDS011;50187;50.492;12.134;2023-04-12T03:47:00;1.47;;;1.37;;
20159;SDS011;50187;50.492;12.134;2023-04-12T03:49:53;1.37;;;1.30;;
20159;SDS011;50187;50.492;12.134;2023-04-12T03:52:57;1.53;;;1.43;;
20159;SDS011;50187;50.492;12.134;2023-04-12T03:55:48;1.43;;;1.33;;
20159;SDS011;50187;50.492;12.134;2023-04-12T03:58:33;1.37;;;1.27;;
20159;SDS011;50187;50.492;12.134;2023-04-12T04:01:19;1.00;;;1.00;;
20159;SDS011;50187;50.492;12.134;2023-04-12T04:04:05;1.53;;;1.43;;
20159;SDS011;50187;50.492;12.134;2023-04-12T04:06:52;1.43;;;1.33;;
20159;SDS011;50187;50.492;12.134;2023-04-12T04:09:37;1.37;;;1.27;;
20159;SDS011;50187;50.492;12.134;2023-04-12T04:12:22;1.10;;;1.10;;
20159;SDS011;50187;50.492;12.134;2023-04-12T04:15:12;1.23;;;1.20;;
20159;SDS011;50187;50.492;12.134;2023-04-12T04:17:59;1.17;;;1.17;;
20159;SDS011;50187;50.492;12.134;2023-04-12T04:20:45;1.50;;;1.40;;
20159;SDS011;50187;50.492;12.134;2023-04-12T04:23:31;1.10;;;1.10;;
20159;SDS011;50187;50.492;12.134;2023-04-12T04:26:24;1.40;;;1.30;;
20159;SDS011;50187;50.492;12.134;2023-04-12T04:29:25;1.60;;;1.50;;
20159;SDS011;50187;50.492;12.134;2023-04-12T04:32:12;1.40;;;1.30;;
20159;SDS011;50187;50.492;12.134;2023-04-12T04:34:57;1.33;;;1.33;;
20159;SDS011;50187;50.492;12.134;2023-04-12T04:37:50;1.77;;;1.40;;
20159;SDS011;50187;50.492;12.134;2023-04-12T04:40:37;1.50;;;1.40;;
20159;SDS011;50187;50.492;12.134;2023-04-12T04:43:24;1.33;;;1.33;;
20159;SDS011;50187;50.492;12.134;2023-04-12T04:46:16;1.43;;;1.33;;
20159;SDS011;50187;50.492;12.134;2023-04-12T04:49:05;1.33;;;1.30;;
20159;SDS011;50187;50.492;12.134;2023-04-12T04:51:50;1.33;;;1.23;;
20159;SDS011;50187;50.492;12.134;2023-04-12T04:54:38;1.17;;;1.17;;
20159;SDS011;50187;50.492;12.134;2023-04-12T04:57:25;1.27;;;1.23;;
20159;SDS011;50187;50.492;12.134;2023-04-12T05:00:13;1.37;;;1.27;;
20159;SDS011;50187;50.492;12.134;2023-04-12T05:03:03;1.27;;;1.20;;
20159;SDS011;50187;50.492;12.134;2023-04-12T05:05:48;1.43;;;1.33;;
20159;SDS011;50187;50.492;12.134;2023-04-12T05:08:33;1.07;;;1.07;;
20159;SDS011;50187;50.492;12.134;2023-04-12T05:11:19;1.20;;;1.10;;
20159;SDS011;50187;50.492;12.134;2023-04-12T05:14:05;1.70;;;1.10;;
20159;SDS011;50187;50.492;12.134;2023-04-12T05:16:52;1.00;;;1.00;;
20159;SDS011;50187;50.492;12.134;2023-04-12T05:19:38;1.13;;;1.13;;
20159;SDS011;50187;50.492;12.134;2023-04-12T05:22:25;1.07;;;1.07;;
20159;SDS011;50187;50.492;12.134;2023-04-12T05:25:10;1.47;;;1.37;;
20159;SDS011;50187;50.492;12.134;2023-04-12T05:28:06;1.30;;;1.20;;
20159;SDS011;50187;50.492;12.134;2023-04-12T05:30:58;1.03;;;1.03;;
20159;SDS011;50187;50.492;12.134;2023-04-12T05:33:51;1.20;;;1.20;;
20159;SDS011;50187;50.492;12.134;2023-04-12T05:36:40;1.40;;;1.30;;
20159;SDS011;50187;50.492;12.134;2023-04-12T05:39:26;1.40;;;1.30;;
20159;SDS011;50187;50.492;12.134;2023-04-12T05:42:11;1.20;;;1.10;;
20159;SDS011;50187;50.492;12.134;2023-04-12T05:44:56;1.57;;;1.30;;
20159;SDS011;50187;50.492;12.134;2023-04-12T05:47:42;1.37;;;1.27;;
20159;SDS011;50187;50.492;12.134;2023-04-12T05:50:28;1.10;;;1.03;;
20159;SDS011;50187;50.492;12.134;2023-04-12T05:53:13;1.60;;;1.50;;
20159;SDS011;50187;50.492;12.134;2023-04-12T05:55:59;1.30;;;1.20;;
20159;SDS011;50187;50.492;12.134;2023-04-12T05:58:46;1.10;;;1.10;;
20159;SDS011;50187;50.492;12.134;2023-04-12T06:01:32;0.90;;;0.90;;
20159;SDS011;50187;50.492;12.134;2023-04-12T06:04:18;1.37;;;1.27;;
20159;SDS011;50187;50.492;12.134;2023-04-12T06:07:03;1.23;;;1.23;;
20159;SDS011;50187;50.492;12.134;2023-04-12T06:09:49;1.40;;;1.30;;
20159;SDS011;50187;50.492;12.134;2023-04-12T06:12:35;1.13;;;1.07;;
20159;SDS011;50187;50.492;12.134;2023-04-12T06:15:21;1.17;;;1.10;;
20159;SDS011;50187;50.492;12.134;2023-04-12T06:18:12;1.20;;;1.20;;
20159;SDS011;50187;50.492;12.134;2023-04-12T06:20:58;1.37;;;0.97;;
20159;SDS011;50187;50.492;12.134;2023-04-12T06:23:45;1.50;;;1.40;;
20159;SDS011;50187;50.492;12.134;2023-04-12T06:26:29;1.13;;;1.13;;
20159;SDS011;50187;50.492;12.134;2023-04-12T06:29:24;1.33;;;1.23;;
20159;SDS011;50187;50.492;12.134;2023-04-12T06:32:10;1.30;;;1.20;;
20159;SDS011;50187;50.492;12.134;2023-04-12T06:34:55;1.33;;;1.23;;
20159;SDS011;50187;50.492;12.134;2023-04-12T06:37:40;1.50;;;1.40;;
20159;SDS011;50187;50.492;12.134;2023-04-12T06:40:25;1.30;;;1.30;;
20159;SDS011;50187;50.492;12.134;2023-04-12T06:43:11;1.50;;;1.40;;
20159;SDS011;50187;50.492;12.134;2023-04-12T06:45:56;1.07;;;1.07;;
20159;SDS011;50187;50.492;12.134;2023-04-12T06:48:42;1.50;;;1.40;;
20159;SDS011;50187;50.492;12.134;2023-04-12T06:51:26;1.00;;;1.00;;
20159;SDS011;50187;50.492;12.134;2023-04-12T06:54:12;1.20;;;1.20;;
20159;SDS011;50187;50.492;12.134;2023-04-12T06:56:57;1.57;;;1.30;;
20159;SDS011;50187;50.492;12.134;2023-04-12T06:59:43;1.30;;;1.20;;
20159;SDS011;50187;50.492;12.134;2023-04-12T07:02:29;1.60;;;1.50;;
20159;SDS011;50187;50.492;12.134;2023-04-12T07:05:14;1.30;;;1.20;;
20159;SDS011;50187;50.492;12.134;2023-04-12T07:07:59;1.03;;;1.03;;
20159;SDS011;50187;50.492;12.134;2023-04-12T07:10:44;1.97;;;1.40;;
20159;SDS011;50187;50.492;12.134;2023-04-12T07:13:29;1.53;;;1.43;;
20159;SDS011;50187;50.492;12.134;2023-04-12T07:16:15;1.77;;;1.57;;
20159;SDS011;50187;50.492;12.134;2023-04-12T07:19:01;1.70;;;1.60;;
20159;SDS011;50187;50.492;12.134;2023-04-12T07:21:47;1.10;;;1.10;;
20159;SDS011;50187;50.492;12.134;2023-04-12T07:24:31;1.23;;;1.13;;
20159;SDS011;50187;50.492;12.134;2023-04-12T07:27:17;2.50;;;1.20;;
20159;SDS011;50187;50.492;12.134;2023-04-12T07:30:02;1.20;;;1.20;;
20159;SDS011;50187;50.492;12.134;2023-04-12T07:32:48;1.60;;;1.50;;
20159;SDS011;50187;50.492;12.134;2023-04-12T07:35:33;1.70;;;1.23;;
20159;SDS011;50187;50.492;12.134;2023-04-12T07:38:18;1.10;;;1.10;;
20159;SDS011;50187;50.492;12.134;2023-04-12T07:41:04;1.20;;;1.10;;
20159;SDS011;50187;50.492;12.134;2023-04-12T07:43:49;1.53;;;1.43;;
20159;SDS011;50187;50.492;12.134;2023-04-12T07:46:34;1.40;;;1.30;;
20159;SDS011;50187;50.492;12.134;2023-04-12T07:49:19;1.37;;;1.27;;
20159;SDS011;50187;50.492;12.134;2023-04-12T07:52:04;1.20;;;1.20;;
20159;SDS011;50187;50.492;12.134;2023-04-12T07:54:50;1.30;;;1.20;;
20159;SDS011;50187;50.492;12.134;2023-04-12T07:57:35;1.80;;;1.40;;
20159;SDS011;50187;50.492;12.134;2023-04-12T08:00:20;1.40;;;1.30;;
20159;SDS011;50187;50.492;12.134;2023-04-12T08:03:05;1.40;;;1.30;;
20159;SDS011;50187;50.492;12.134;2023-04-12T08:05:51;1.53;;;1.33;;
20159;SDS011;50187;50.492;12.134;2023-04-12T08:08:37;1.20;;;1.10;;
20159;SDS011;50187;50.492;12.134;2023-04-12T08:11:22;1.50;;;1.40;;
20159;SDS011;50187;50.492;12.134;2023-04-12T08:14:07;1.47;;;1.37;;
20159;SDS011;50187;50.492;12.134;2023-04-12T08:16:54;1.33;;;1.27;;
20159;SDS011;50187;50.492;12.134;2023-04-12T08:19:39;1.10;;;1.10;;
20159;SDS011;50187;50.492;12.134;2023-04-12T08:22:24;1.33;;;1.23;;
20159;SDS011;50187;50.492;12.134;2023-04-12T08:25:10;1.40;;;1.30;;
20159;SDS011;50187;50.492;12.134;2023-04-12T08:27:55;1.30;;;1.17;;
20159;SDS011;50187;50.492;12.134;2023-04-12T08:30:40;1.43;;;1.33;;
20159;SDS011;50187;50.492;12.134;2023-04-12T08:33:27;1.40;;;1.40;;
20159;SDS011;50187;50.492;12.134;2023-04-12T08:36:12;1.53;;;1.43;;
20159;SDS011;50187;50.492;12.134;2023-04-12T08:39:00;1.27;;;1.17;;
20159;SDS011;50187;50.492;12.134;2023-04-12T08:41:46;1.97;;;1.37;;
20159;SDS011;50187;50.492;12.134;2023-04-12T08:44:32;1.50;;;1.40;;
20159;SDS011;50187;50.492;12.134;2023-04-12T08:47:22;1.87;;;1.40;;
20159;SDS011;50187;50.492;12.134;2023-04-12T08:50:08;1.40;;;1.30;;
20159;SDS011;50187;50.492;12.134;2023-04-12T08:52:54;1.60;;;1.50;;
20159;SDS011;50187;50.492;12.134;2023-04-12T08:55:44;1.97;;;1.57;;
20159;SDS011;50187;50.492;12.134;2023-04-12T08:58:29;1.30;;;1.20;;
20159;SDS011;50187;50.492;12.134;2023-04-12T09:01:15;1.30;;;1.20;;
20159;SDS011;50187;50.492;12.134;2023-04-12T09:04:04;1.47;;;1.13;;
20159;SDS011;50187;50.492;12.134;2023-04-12T09:06:50;1.43;;;1.33;;
20159;SDS011;50187;50.492;12.134;2023-04-12T09:09:40;1.97;;;1.20;;
20159;SDS011;50187;50.492;12.134;2023-04-12T09:12:29;1.20;;;1.10;;
20159;SDS011;50187;50.492;12.134;2023-04-12T09:15:15;1.50;;;1.40;;
20159;SDS011;50187;50.492;12.134;2023-04-12T09:18:06;1.63;;;1.30;;
20159;SDS011;50187;50.492;12.134;2023-04-12T09:21:06;2.40;;;1.57;;
20159;SDS011;50187;50.492;12.134;2023-04-12T09:27:09;1.37;;;1.37;;
20159;SDS011;50187;50.492;12.134;2023-04-12T09:30:07;1.43;;;1.33;;
20159;SDS011;50187;50.492;12.134;2023-04-12T09:32:53;1.30;;;1.20;;
20159;SDS011;50187;50.492;12.134;2023-04-12T09:35:39;2.00;;;1.37;;
20159;SDS011;50187;50.492;12.134;2023-04-12T09:38:27;1.40;;;1.30;;
20159;SDS011;50187;50.492;12.134;2023-04-12T09:41:19;1.57;;;1.47;;
20159;SDS011;50187;50.492;12.134;2023-04-12T09:44:32;1.67;;;1.00;;
20159;SDS011;50187;50.492;12.134;2023-04-12T09:47:18;1.70;;;1.30;;
20159;SDS011;50187;50.492;12.134;2023-04-12T09:50:04;2.43;;;1.70;;
20159;SDS011;50187;50.492;12.134;2023-04-12T09:52:52;1.37;;;1.27;;
20159;SDS011;50187;50.492;12.134;2023-04-12T09:55:37;1.10;;;1.00;;
20159;SDS011;50187;50.492;12.134;2023-04-12T09:58:22;1.20;;;1.20;;
20159;SDS011;50187;50.492;12.134;2023-04-12T10:01:08;1.70;;;1.20;;
20159;SDS011;50187;50.492;12.134;2023-04-12T10:03:54;1.50;;;1.40;;
20159;SDS011;50187;50.492;12.134;2023-04-12T10:06:43;1.10;;;1.10;;
20159;SDS011;50187;50.492;12.134;2023-04-12T10:09:29;1.60;;;1.50;;
20159;SDS011;50187;50.492;12.134;2023-04-12T10:12:15;2.53;;;1.23;;
20159;SDS011;50187;50.492;12.134;2023-04-12T10:15:04;2.37;;;1.47;;
20159;SDS011;50187;50.492;12.134;2023-04-12T10:18:02;1.20;;;1.10;;
20159;SDS011;50187;50.492;12.134;2023-04-12T10:20:49;1.10;;;1.00;;
20159;SDS011;50187;50.492;12.134;2023-04-12T10:23:37;1.40;;;1.17;;
20159;SDS011;50187;50.492;12.134;2023-04-12T10:26:22;1.37;;;1.27;;
20159;SDS011;50187;50.492;12.134;2023-04-12T10:29:21;1.23;;;1.13;;
20159;SDS011;50187;50.492;12.134;2023-04-12T10:32:22;1.20;;;1.10;;
20159;SDS011;50187;50.492;12.134;2023-04-12T10:35:14;1.10;;;1.00;;
20159;SDS011;50187;50.492;12.134;2023-04-12T10:38:00;1.20;;;1.10;;
20159;SDS011;50187;50.492;12.134;2023-04-12T10:44:24;1.30;;;1.20;;
20159;SDS011;50187;50.492;12.134;2023-04-12T10:47:12;1.50;;;1.43;;
20159;SDS011;50187;50.492;12.134;2023-04-12T10:53:19;1.10;;;1.00;;
20159;SDS011;50187;50.492;12.134;2023-04-12T10:59:16;1.40;;;1.30;;
20159;SDS011;50187;50.492;12.134;2023-04-12T11:05:08;1.20;;;1.10;;
20159;SDS011;50187;50.492;12.134;2023-04-12T11:08:21;1.03;;;1.03;;
20159;SDS011;50187;50.492;12.134;2023-04-12T11:11:17;1.20;;;1.20;;
20159;SDS011;50187;50.492;12.134;2023-04-12T11:14:04;3.10;;;1.20;;
20159;SDS011;50187;50.492;12.134;2023-04-12T11:17:36;2.57;;;1.33;;
20159;SDS011;50187;50.492;12.134;2023-04-12T11:20:02;1.20;;;1.20;;
20159;SDS011;50187;50.492;12.134;2023-04-12T11:22:48;1.60;;;1.50;;
20159;SDS011;50187;50.492;12.134;2023-04-12T11:25:35;1.20;;;1.20;;
20159;SDS011;50187;50.492;12.134;2023-04-12T11:28:21;1.30;;;1.20;;
20159;SDS011;50187;50.492;12.134;2023-04-12T11:31:14;1.30;;;1.20;;
20159;SDS011;50187;50.492;12.134;2023-04-12T11:34:03;1.20;;;1.10;;
20159;SDS011;50187;50.492;12.134;2023-04-12T11:36:52;1.07;;;0.97;;
20159;SDS011;50187;50.492;12.134;2023-04-12T11:39:39;1.53;;;1.43;;
20159;SDS011;50187;50.492;12.134;2023-04-12T11:42:28;1.00;;;1.00;;
20159;SDS011;50187;50.492;12.134;2023-04-12T11:45:17;1.03;;;0.97;;
20159;SDS011;50187;50.492;12.134;2023-04-12T11:48:06;1.43;;;1.20;;
20159;SDS011;50187;50.492;12.134;2023-04-12T11:50:53;1.10;;;1.10;;
20159;SDS011;50187;50.492;12.134;2023-04-12T11:53:54;1.23;;;1.13;;
20159;SDS011;50187;50.492;12.134;2023-04-12T11:56:40;1.10;;;1.00;;
20159;SDS011;50187;50.492;12.134;2023-04-12T11:59:32;1.17;;;1.17;;
20159;SDS011;50187;50.492;12.134;2023-04-12T12:02:18;1.07;;;1.07;;
20159;SDS011;50187;50.492;12.134;2023-04-12T12:05:08;1.00;;;1.00;;
20159;SDS011;50187;50.492;12.134;2023-04-12T12:07:55;1.10;;;1.07;;
20159;SDS011;50187;50.492;12.134;2023-04-12T12:10:42;1.50;;;1.40;;
20159;SDS011;50187;50.492;12.134;2023-04-12T12:13:48;1.47;;;1.37;;
20159;SDS011;50187;50.492;12.134;2023-04-12T12:16:37;1.10;;;1.10;;
20159;SDS011;50187;50.492;12.134;2023-04-12T12:19:32;1.57;;;1.47;;
20159;SDS011;50187;50.492;12.134;2023-04-12T12:22:20;1.17;;;1.07;;
20159;SDS011;50187;50.492;12.134;2023-04-12T12:25:06;0.87;;;0.87;;
20159;SDS011;50187;50.492;12.134;2023-04-12T12:27:55;1.13;;;1.03;;
20159;SDS011;50187;50.492;12.134;2023-04-12T12:30:41;1.13;;;1.13;;
20159;SDS011;50187;50.492;12.134;2023-04-12T12:33:35;1.07;;;1.07;;
20159;SDS011;50187;50.492;12.134;2023-04-12T12:36:34;0.90;;;0.90;;
20159;SDS011;50187;50.492;12.134;2023-04-12T12:39:20;1.47;;;1.37;;
20159;SDS011;50187;50.492;12.134;2023-04-12T12:42:06;1.20;;;1.20;;
20159;SDS011;50187;50.492;12.134;2023-04-12T12:44:51;0.90;;;0.90;;
20159;SDS011;50187;50.492;12.134;2023-04-12T12:47:46;1.10;;;1.00;;
20159;SDS011;50187;50.492;12.134;2023-04-12T12:50:38;2.47;;;1.20;;
20159;SDS011;50187;50.492;12.134;2023-04-12T12:53:24;1.13;;;1.03;;
20159;SDS011;50187;50.492;12.134;2023-04-12T12:56:10;1.13;;;1.13;;
20159;SDS011;50187;50.492;12.134;2023-04-12T12:58:57;1.00;;;0.90;;
20159;SDS011;50187;50.492;12.134;2023-04-12T13:01:42;0.90;;;0.90;;
20159;SDS011;50187;50.492;12.134;2023-04-12T13:04:28;1.07;;;1.00;;
20159;SDS011;50187;50.492;12.134;2023-04-12T13:07:13;0.70;;;0.70;;
20159;SDS011;50187;50.492;12.134;2023-04-12T13:09:59;0.90;;;0.90;;
20159;SDS011;50187;50.492;12.134;2023-04-12T13:12:44;2.47;;;1.23;;
20159;SDS011;50187;50.492;12.134;2023-04-12T13:15:29;1.43;;;1.33;;
20159;SDS011;50187;50.492;12.134;2023-04-12T13:18:14;1.10;;;1.10;;
20159;SDS011;50187;50.492;12.134;2023-04-12T13:21:00;0.90;;;0.90;;
20159;SDS011;50187;50.492;12.134;2023-04-12T13:23:45;1.00;;;1.00;;
20159;SDS011;50187;50.492;12.134;2023-04-12T13:26:30;0.80;;;0.80;;
20159;SDS011;50187;50.492;12.134;2023-04-12T13:29:16;0.70;;;0.70;;
20159;SDS011;50187;50.492;12.134;2023-04-12T13:32:01;0.90;;;0.90;;
20159;SDS011;50187;50.492;12.134;2023-04-12T13:34:47;1.03;;;1.03;;
20159;SDS011;50187;50.492;12.134;2023-04-12T13:37:32;0.90;;;0.90;;
20159;SDS011;50187;50.492;12.134;2023-04-12T13:40:17;1.07;;;1.07;;
20159;SDS011;50187;50.492;12.134;2023-04-12T13:43:03;0.80;;;0.80;;
20159;SDS011;50187;50.492;12.134;2023-04-12T13:45:48;1.23;;;1.07;;
20159;SDS011;50187;50.492;12.134;2023-04-12T13:48:34;0.67;;;0.67;;
20159;SDS011;50187;50.492;12.134;2023-04-12T13:51:20;1.00;;;1.00;;
20159;SDS011;50187;50.492;12.134;2023-04-12T13:54:05;1.20;;;1.10;;
20159;SDS011;50187;50.492;12.134;2023-04-12T13:56:50;0.90;;;0.90;;
20159;SDS011;50187;50.492;12.134;2023-04-12T13:59:35;0.80;;;0.80;;
20159;SDS011;50187;50.492;12.134;2023-04-12T14:02:21;1.00;;;1.00;;
20159;SDS011;50187;50.492;12.134;2023-04-12T14:05:06;0.97;;;0.90;;
20159;SDS011;50187;50.492;12.134;2023-04-12T14:07:52;0.80;;;0.80;;
20159;SDS011;50187;50.492;12.134;2023-04-12T14:10:39;1.60;;;1.13;;
20159;SDS011;50187;50.492;12.134;2023-04-12T14:13:25;0.80;;;0.80;;
20159;SDS011;50187;50.492;12.134;2023-04-12T14:16:10;2.33;;;1.00;;
20159;SDS011;50187;50.492;12.134;2023-04-12T14:18:56;1.00;;;0.90;;
20159;SDS011;50187;50.492;12.134;2023-04-12T14:21:41;2.03;;;1.00;;
20159;SDS011;50187;50.492;12.134;2023-04-12T14:24:26;2.60;;;1.20;;
20159;SDS011;50187;50.492;12.134;2023-04-12T14:27:12;1.37;;;1.00;;
20159;SDS011;50187;50.492;12.134;2023-04-12T14:30:01;3.13;;;1.20;;
20159;SDS011;50187;50.492;12.134;2023-04-12T14:32:47;2.87;;;1.30;;
20159;SDS011;50187;50.492;12.134;2023-04-12T14:35:33;1.43;;;1.13;;
20159;SDS011;50187;50.492;12.134;2023-04-12T14:38:18;1.43;;;1.20;;
20159;SDS011;50187;50.492;12.134;2023-04-12T14:41:07;2.00;;;1.13;;
20159;SDS011;50187;50.492;12.134;2023-04-12T14:43:53;1.80;;;1.27;;
20159;SDS011;50187;50.492;12.134;2023-04-12T14:46:39;1.27;;;1.17;;
20159;SDS011;50187;50.492;12.134;2023-04-12T14:49:24;2.20;;;1.00;;
20159;SDS011;50187;50.492;12.134;2023-04-12T14:52:09;3.03;;;1.10;;
20159;SDS011;50187;50.492;12.134;2023-04-12T14:54:55;6.90;;;5.73;;
20159;SDS011;50187;50.492;12.134;2023-04-12T14:57:40;15.47;;;14.13;;
20159;SDS011;50187;50.492;12.134;2023-04-12T15:00:25;9.67;;;8.87;;
20159;SDS011;50187;50.492;12.134;2023-04-12T15:03:13;7.70;;;7.10;;
20159;SDS011;50187;50.492;12.134;2023-04-12T15:05:59;4.63;;;4.23;;
20159;SDS011;50187;50.492;12.134;2023-04-12T15:08:44;3.97;;;3.67;;
20159;SDS011;50187;50.492;12.134;2023-04-12T15:11:29;3.00;;;2.80;;
20159;SDS011;50187;50.492;12.134;2023-04-12T15:14:19;2.60;;;2.40;;
20159;SDS011;50187;50.492;12.134;2023-04-12T15:17:06;2.97;;;2.77;;
20159;SDS011;50187;50.492;12.134;2023-04-12T15:19:52;3.27;;;3.07;;
20159;SDS011;50187;50.492;12.134;2023-04-12T15:22:37;4.17;;;3.50;;
20159;SDS011;50187;50.492;12.134;2023-04-12T15:25:23;3.00;;;2.53;;
20159;SDS011;50187;50.492;12.134;2023-04-12T15:28:09;6.80;;;6.17;;
20159;SDS011;50187;50.492;12.134;2023-04-12T15:30:54;12.53;;;11.43;;
20159;SDS011;50187;50.492;12.134;2023-04-12T15:33:39;27.30;;;24.70;;
20159;SDS011;50187;50.492;12.134;2023-04-12T15:36:24;32.87;;;29.60;;
20159;SDS011;50187;50.492;12.134;2023-04-12T15:39:17;32.80;;;29.53;;
20159;SDS011;50187;50.492;12.134;2023-04-12T15:42:03;59.03;;;47.87;;
20159;SDS011;50187;50.492;12.134;2023-04-12T15:44:49;53.20;;;44.03;;
20159;SDS011;50187;50.492;12.134;2023-04-12T15:47:34;48.83;;;38.23;;
20159;SDS011;50187;50.492;12.134;2023-04-12T15:50:19;115.47;;;84.90;;
20159;SDS011;50187;50.492;12.134;2023-04-12T15:53:06;132.20;;;102.87;;
20159;SDS011;50187;50.492;12.134;2023-04-12T15:55:51;108.33;;;80.40;;
20159;SDS011;50187;50.492;12.134;2023-04-12T15:58:40;74.00;;;55.63;;
20159;SDS011;50187;50.492;12.134;2023-04-12T16:01:26;63.10;;;44.77;;
20159;SDS011;50187;50.492;12.134;2023-04-12T16:04:12;59.67;;;47.63;;
20159;SDS011;50187;50.492;12.134;2023-04-12T16:06:57;84.93;;;72.53;;
20159;SDS011;50187;50.492;12.134;2023-04-12T16:09:45;87.07;;;74.00;;
20159;SDS011;50187;50.492;12.134;2023-04-12T16:12:31;74.00;;;62.47;;
20159;SDS011;50187;50.492;12.134;2023-04-12T16:15:16;58.33;;;50.73;;
20159;SDS011;50187;50.492;12.134;2023-04-12T16:18:03;41.67;;;34.23;;
20159;SDS011;50187;50.492;12.134;2023-04-12T16:20:48;32.47;;;27.30;;
20159;SDS011;50187;50.492;12.134;2023-04-12T16:23:36;46.77;;;36.33;;
20159;SDS011;50187;50.492;12.134;2023-04-12T16:26:24;117.07;;;82.27;;
20159;SDS011;50187;50.492;12.134;2023-04-12T16:29:09;218.07;;;154.10;;
20159;SDS011;50187;50.492;12.134;2023-04-12T16:31:54;253.83;;;188.20;;
20159;SDS011;50187;50.492;12.134;2023-04-12T16:34:40;283.27;;;211.47;;
20159;SDS011;50187;50.492;12.134;2023-04-12T16:37:27;274.53;;;209.90;;
20159;SDS011;50187;50.492;12.134;2023-04-12T16:40:12;256.50;;;192.80;;
20159;SDS011;50187;50.492;12.134;2023-04-12T16:42:58;239.67;;;181.40;;
20159;SDS011;50187;50.492;12.134;2023-04-12T16:45:43;234.97;;;171.03;;
20159;SDS011;50187;50.492;12.134;2023-04-12T16:48:30;221.90;;;161.00;;
20159;SDS011;50187;50.492;12.134;2023-04-12T16:51:16;206.00;;;151.57;;
20159;SDS011;50187;50.492;12.134;2023-04-12T16:54:02;189.63;;;139.83;;
20159;SDS011;50187;50.492;12.134;2023-04-12T16:56:47;186.90;;;139.67;;
20159;SDS011;50187;50.492;12.134;2023-04-12T16:59:32;176.90;;;129.13;;
20159;SDS011;50187;50.492;12.134;2023-04-12T17:02:18;170.90;;;125.17;;